sensor_id;sensor_type;location;lat;lon;timestamp;pressure;altitude;pressure_sealevel;temperature;humidity
49973;BME280;65693;49.798;10.968;2023-02-01T00:02:12;98491.31;;;6.60;61.17
49973;BME280;65693;49.798;10.968;2023-02-01T00:04:39;98487.75;;;6.61;60.87
49973;BME280;65693;49.798;10.968;2023-02-01T00:07:05;98485.09;;;6.61;60.99
49973;BME280;65693;49.798;10.968;2023-02-01T00:09:32;98491.31;;;6.60;60.91
49973;BME280;65693;49.798;10.968;2023-02-01T00:11:58;98489.59;;;6.59;61.08
49973;BME280;65693;49.798;10.968;2023-02-01T00:14:27;98487.78;;;6.59;61.16
49973;BME280;65693;49.798;10.968;2023-02-01T00:16:53;98472.91;;;6.58;61.01
49973;BME280;65693;49.798;10.968;2023-02-01T00:19:21;98472.91;;;6.58;60.91
49973;BME280;65693;49.798;10.968;2023-02-01T00:21:48;98477.41;;;6.56;61.16
49973;BME280;65693;49.798;10.968;2023-02-01T00:24:14;98473.84;;;6.57;61.14
49973;BME280;65693;49.798;10.968;2023-02-01T00:26:42;98462.47;;;6.57;61.01
49973;BME280;65693;49.798;10.968;2023-02-01T00:29:11;98465.09;;;6.57;61.22
49973;BME280;65693;49.798;10.968;2023-02-01T00:31:38;98456.41;;;6.54;61.04
49973;BME280;65693;49.798;10.968;2023-02-01T00:34:04;98454.63;;;6.55;61.17
49973;BME280;65693;49.798;10.968;2023-02-01T00:36:33;98457.34;;;6.53;61.12
49973;BME280;65693;49.798;10.968;2023-02-01T00:38:59;98445.88;;;6.54;61.19
49973;BME280;65693;49.798;10.968;2023-02-01T00:41:26;98453.78;;;6.54;61.43
49973;BME280;65693;49.798;10.968;2023-02-01T00:43:52;98455.63;;;6.52;61.15
49973;BME280;65693;49.798;10.968;2023-02-01T00:46:19;98451.25;;;6.51;61.31
49973;BME280;65693;49.798;10.968;2023-02-01T00:48:47;98442.53;;;6.51;61.41
49973;BME280;65693;49.798;10.968;2023-02-01T00:51:15;98446.09;;;6.50;61.44
49973;BME280;65693;49.798;10.968;2023-02-01T00:53:43;98448.63;;;6.51;61.15
49973;BME280;65693;49.798;10.968;2023-02-01T00:56:10;98450.41;;;6.51;61.42
49973;BME280;65693;49.798;10.968;2023-02-01T00:58:38;98448.63;;;6.51;61.25
49973;BME280;65693;49.798;10.968;2023-02-01T01:01:06;98450.47;;;6.49;61.22
49973;BME280;65693;49.798;10.968;2023-02-01T01:03:35;98447.84;;;6.49;61.34
49973;BME280;65693;49.798;10.968;2023-02-01T01:06:04;98450.47;;;6.49;61.36
49973;BME280;65693;49.798;10.968;2023-02-01T01:08:31;98454.03;;;6.48;61.26
49973;BME280;65693;49.798;10.968;2023-02-01T01:11:04;98453.19;;;6.48;61.62
49973;BME280;65693;49.798;10.968;2023-02-01T01:13:30;98463.72;;;6.48;61.69
49973;BME280;65693;49.798;10.968;2023-02-01T01:15:59;98456.75;;;6.47;61.39
49973;BME280;65693;49.798;10.968;2023-02-01T01:18:27;98463.72;;;6.48;61.46
49973;BME280;65693;49.798;10.968;2023-02-01T01:20:54;98451.50;;;6.47;61.29
49973;BME280;65693;49.798;10.968;2023-02-01T01:23:20;98448.91;;;6.45;61.28
49973;BME280;65693;49.798;10.968;2023-02-01T01:25:47;98452.31;;;6.47;61.43
49973;BME280;65693;49.798;10.968;2023-02-01T01:28:15;98455.97;;;6.45;61.53
49973;BME280;65693;49.798;10.968;2023-02-01T01:30:41;98443.72;;;6.44;61.55
49973;BME280;65693;49.798;10.968;2023-02-01T01:33:08;98449.78;;;6.46;61.29
49973;BME280;65693;49.798;10.968;2023-02-01T01:35:34;98446.34;;;6.44;61.48
49973;BME280;65693;49.798;10.968;2023-02-01T01:38:01;98453.38;;;6.43;61.56
49973;BME280;65693;49.798;10.968;2023-02-01T01:40:29;98463.00;;;6.44;61.73
49973;BME280;65693;49.798;10.968;2023-02-01T01:42:56;98453.38;;;6.43;61.50
49973;BME280;65693;49.798;10.968;2023-02-01T01:45:26;98457.88;;;6.41;61.45
49973;BME280;65693;49.798;10.968;2023-02-01T01:47:55;98456.06;;;6.41;61.38
49973;BME280;65693;49.798;10.968;2023-02-01T01:50:25;98455.22;;;6.41;61.45
49973;BME280;65693;49.798;10.968;2023-02-01T01:52:55;98443.84;;;6.40;61.69
49973;BME280;65693;49.798;10.968;2023-02-01T01:55:23;98450.88;;;6.40;61.54
49973;BME280;65693;49.798;10.968;2023-02-01T01:57:55;98446.56;;;6.39;61.58
49973;BME280;65693;49.798;10.968;2023-02-01T02:00:24;98438.66;;;6.39;61.54
49973;BME280;65693;49.798;10.968;2023-02-01T02:02:57;98443.91;;;6.39;61.58
49973;BME280;65693;49.798;10.968;2023-02-01T02:05:24;98434.22;;;6.39;61.44
49973;BME280;65693;49.798;10.968;2023-02-01T02:07:53;98436.03;;;6.39;61.59
49973;BME280;65693;49.798;10.968;2023-02-01T02:10:23;98428.13;;;6.39;61.42
49973;BME280;65693;49.798;10.968;2023-02-01T02:13:10;98427.25;;;6.38;61.60
49973;BME280;65693;49.798;10.968;2023-02-01T02:15:43;98428.19;;;6.37;61.61
49973;BME280;65693;49.798;10.968;2023-02-01T02:18:17;98434.38;;;6.36;61.65
49973;BME280;65693;49.798;10.968;2023-02-01T02:21:10;98436.06;;;6.37;61.87
49973;BME280;65693;49.798;10.968;2023-02-01T02:23:58;98435.22;;;6.37;61.48
49973;BME280;65693;49.798;10.968;2023-02-01T02:26:46;98434.31;;;6.38;61.71
49973;BME280;65693;49.798;10.968;2023-02-01T02:29:46;98443.19;;;6.35;61.66
49973;BME280;65693;49.798;10.968;2023-02-01T02:35:22;98438.91;;;6.33;61.77
49973;BME280;65693;49.798;10.968;2023-02-01T02:37:58;98430.91;;;6.36;61.63
49973;BME280;65693;49.798;10.968;2023-02-01T02:40:32;98424.81;;;6.34;61.76
49973;BME280;65693;49.798;10.968;2023-02-01T02:43:05;98433.63;;;6.33;61.87
49973;BME280;65693;49.798;10.968;2023-02-01T02:45:55;98433.56;;;6.34;61.75
49973;BME280;65693;49.798;10.968;2023-02-01T02:49:01;98416.13;;;6.32;61.69
49973;BME280;65693;49.798;10.968;2023-02-01T02:51:35;98415.28;;;6.31;61.86
49973;BME280;65693;49.798;10.968;2023-02-01T02:54:24;98406.47;;;6.32;61.86
49973;BME280;65693;49.798;10.968;2023-02-01T02:57:13;98397.75;;;6.30;61.89
49973;BME280;65693;49.798;10.968;2023-02-01T03:00:02;98399.50;;;6.31;61.94
49973;BME280;65693;49.798;10.968;2023-02-01T03:02:48;98401.22;;;6.31;61.70
49973;BME280;65693;49.798;10.968;2023-02-01T03:05:33;98402.97;;;6.32;61.67
49973;BME280;65693;49.798;10.968;2023-02-01T03:08:08;98395.97;;;6.31;61.79
49973;BME280;65693;49.798;10.968;2023-02-01T03:10:42;98405.59;;;6.32;61.94
49973;BME280;65693;49.798;10.968;2023-02-01T03:13:13;98412.69;;;6.30;61.86
49973;BME280;65693;49.798;10.968;2023-02-01T03:15:45;98412.56;;;6.33;61.82
49973;BME280;65693;49.798;10.968;2023-02-01T03:18:19;98390.69;;;6.32;61.99
49973;BME280;65693;49.798;10.968;2023-02-01T03:20:50;98385.50;;;6.29;61.74
49973;BME280;65693;49.798;10.968;2023-02-01T03:23:21;98368.84;;;6.28;61.90
49973;BME280;65693;49.798;10.968;2023-02-01T03:25:49;98375.91;;;6.28;61.89
49973;BME280;65693;49.798;10.968;2023-02-01T03:28:18;98380.97;;;6.33;61.69
49973;BME280;65693;49.798;10.968;2023-02-01T03:30:47;98404.75;;;6.31;61.84
49973;BME280;65693;49.798;10.968;2023-02-01T03:33:17;98405.69;;;6.28;61.97
49973;BME280;65693;49.798;10.968;2023-02-01T03:35:52;98396.03;;;6.29;61.89
49973;BME280;65693;49.798;10.968;2023-02-01T03:38:23;98388.16;;;6.29;61.82
49973;BME280;65693;49.798;10.968;2023-02-01T03:40:57;98382.81;;;6.31;61.91
49973;BME280;65693;49.798;10.968;2023-02-01T03:43:29;98378.47;;;6.30;61.89
49973;BME280;65693;49.798;10.968;2023-02-01T03:46:01;98374.19;;;6.27;61.85
49973;BME280;65693;49.798;10.968;2023-02-01T03:48:31;98367.28;;;6.24;61.91
49973;BME280;65693;49.798;10.968;2023-02-01T03:51:00;98362.81;;;6.26;62.00
49973;BME280;65693;49.798;10.968;2023-02-01T03:53:31;98370.69;;;6.26;61.99
49973;BME280;65693;49.798;10.968;2023-02-01T03:56:01;98382.22;;;6.24;62.06
49973;BME280;65693;49.798;10.968;2023-02-01T03:58:28;98377.81;;;6.24;61.85
49973;BME280;65693;49.798;10.968;2023-02-01T04:00:56;98365.59;;;6.23;61.96
49973;BME280;65693;49.798;10.968;2023-02-01T04:03:24;98362.84;;;6.25;62.13
49973;BME280;65693;49.798;10.968;2023-02-01T04:05:52;98362.06;;;6.23;61.94
49973;BME280;65693;49.798;10.968;2023-02-01T04:08:19;98366.31;;;6.27;61.88
49973;BME280;65693;49.798;10.968;2023-02-01T04:10:47;98355.88;;;6.24;61.92
49973;BME280;65693;49.798;10.968;2023-02-01T04:13:13;98361.94;;;6.26;62.08
49973;BME280;65693;49.798;10.968;2023-02-01T04:15:40;98351.50;;;6.24;61.87
49973;BME280;65693;49.798;10.968;2023-02-01T04:18:06;98349.84;;;6.22;61.88
49973;BME280;65693;49.798;10.968;2023-02-01T04:20:33;98347.16;;;6.23;61.92
49973;BME280;65693;49.798;10.968;2023-02-01T04:22:59;98358.47;;;6.25;61.85
49973;BME280;65693;49.798;10.968;2023-02-01T04:25:27;98350.72;;;6.22;61.98
49973;BME280;65693;49.798;10.968;2023-02-01T04:27:55;98368.22;;;6.23;61.66
49973;BME280;65693;49.798;10.968;2023-02-01T04:30:22;98355.09;;;6.22;62.05
49973;BME280;65693;49.798;10.968;2023-02-01T04:32:48;98357.88;;;6.19;62.13
49973;BME280;65693;49.798;10.968;2023-02-01T04:35:15;98359.53;;;6.21;61.98
49973;BME280;65693;49.798;10.968;2023-02-01T04:37:42;98368.22;;;6.23;61.89
49973;BME280;65693;49.798;10.968;2023-02-01T04:40:10;98362.16;;;6.21;62.13
49973;BME280;65693;49.798;10.968;2023-02-01T04:42:37;98356.13;;;6.19;62.19
49973;BME280;65693;49.798;10.968;2023-02-01T04:45:06;98357.88;;;6.19;62.02
49973;BME280;65693;49.798;10.968;2023-02-01T04:47:32;98366.69;;;6.18;62.24
49973;BME280;65693;49.798;10.968;2023-02-01T04:49:59;98362.28;;;6.18;62.13
49973;BME280;65693;49.798;10.968;2023-02-01T04:52:25;98360.66;;;6.16;62.23
49973;BME280;65693;49.798;10.968;2023-02-01T04:54:52;98366.66;;;6.19;62.26
49973;BME280;65693;49.798;10.968;2023-02-01T04:57:22;98360.31;;;6.23;61.80
49973;BME280;65693;49.798;10.968;2023-02-01T04:59:49;98360.38;;;6.22;61.97
49973;BME280;65693;49.798;10.968;2023-02-01T05:02:16;98369.13;;;6.22;62.00
49973;BME280;65693;49.798;10.968;2023-02-01T05:04:43;98363.00;;;6.22;62.07
49973;BME280;65693;49.798;10.968;2023-02-01T05:07:09;98354.38;;;6.18;62.13
49973;BME280;65693;49.798;10.968;2023-02-01T05:09:36;98359.63;;;6.18;62.19
49973;BME280;65693;49.798;10.968;2023-02-01T05:12:02;98361.56;;;6.15;62.22
49973;BME280;65693;49.798;10.968;2023-02-01T05:14:46;98360.56;;;6.17;61.97
49973;BME280;65693;49.798;10.968;2023-02-01T05:17:14;98360.50;;;6.19;62.08
49973;BME280;65693;49.798;10.968;2023-02-01T05:19:42;98350.91;;;6.18;62.16
49973;BME280;65693;49.798;10.968;2023-02-01T05:22:08;98355.31;;;6.17;61.97
49973;BME280;65693;49.798;10.968;2023-02-01T05:24:34;98353.34;;;6.22;62.00
49973;BME280;65693;49.798;10.968;2023-02-01T05:27:01;98344.78;;;6.17;62.09
49973;BME280;65693;49.798;10.968;2023-02-01T05:29:27;98346.47;;;6.18;62.11
49973;BME280;65693;49.798;10.968;2023-02-01T05:31:54;98342.97;;;6.19;61.98
49973;BME280;65693;49.798;10.968;2023-02-01T05:34:20;98342.88;;;6.21;62.00
49973;BME280;65693;49.798;10.968;2023-02-01T05:36:48;98336.69;;;6.22;61.97
49973;BME280;65693;49.798;10.968;2023-02-01T05:39:14;98331.41;;;6.22;61.94
49973;BME280;65693;49.798;10.968;2023-02-01T05:41:41;98327.94;;;6.21;61.91
49973;BME280;65693;49.798;10.968;2023-02-01T05:44:07;98330.78;;;6.17;62.00
49973;BME280;65693;49.798;10.968;2023-02-01T05:46:34;98324.53;;;6.19;62.00
49973;BME280;65693;49.798;10.968;2023-02-01T05:49:01;98327.22;;;6.18;61.96
49973;BME280;65693;49.798;10.968;2023-02-01T05:51:28;98329.84;;;6.18;62.12
49973;BME280;65693;49.798;10.968;2023-02-01T05:53:55;98321.03;;;6.19;62.24
49973;BME280;65693;49.798;10.968;2023-02-01T05:56:22;98321.97;;;6.18;62.04
49973;BME280;65693;49.798;10.968;2023-02-01T05:58:48;98330.63;;;6.20;61.97
49973;BME280;65693;49.798;10.968;2023-02-01T06:01:15;98327.28;;;6.16;62.00
49973;BME280;65693;49.798;10.968;2023-02-01T06:03:41;98328.88;;;6.20;61.97
49973;BME280;65693;49.798;10.968;2023-02-01T06:06:08;98322.94;;;6.15;62.06
49973;BME280;65693;49.798;10.968;2023-02-01T06:08:34;98325.56;;;6.15;61.97
49973;BME280;65693;49.798;10.968;2023-02-01T06:11:04;98319.53;;;6.13;62.07
49973;BME280;65693;49.798;10.968;2023-02-01T06:13:31;98323.94;;;6.12;61.97
49973;BME280;65693;49.798;10.968;2023-02-01T06:15:58;98322.78;;;6.18;61.96
49973;BME280;65693;49.798;10.968;2023-02-01T06:18:24;98328.06;;;6.18;61.97
49973;BME280;65693;49.798;10.968;2023-02-01T06:20:52;98331.75;;;6.14;62.04
49973;BME280;65693;49.798;10.968;2023-02-01T06:23:19;98320.44;;;6.12;62.04
49973;BME280;65693;49.798;10.968;2023-02-01T06:25:49;98316.75;;;6.16;62.02
49973;BME280;65693;49.798;10.968;2023-02-01T06:28:17;98314.34;;;6.11;62.33
49973;BME280;65693;49.798;10.968;2023-02-01T06:30:44;98286.31;;;6.10;62.24
49973;BME280;65693;49.798;10.968;2023-02-01T06:33:11;98302.91;;;6.12;62.17
49973;BME280;65693;49.798;10.968;2023-02-01T06:35:38;98295.78;;;6.15;61.94
49973;BME280;65693;49.798;10.968;2023-02-01T06:38:04;98295.78;;;6.15;62.08
49973;BME280;65693;49.798;10.968;2023-02-01T06:40:30;98305.09;;;6.22;61.81
49973;BME280;65693;49.798;10.968;2023-02-01T06:42:57;98304.25;;;6.21;62.06
49973;BME280;65693;49.798;10.968;2023-02-01T06:45:25;98313.19;;;6.17;62.04
49973;BME280;65693;49.798;10.968;2023-02-01T06:47:51;98309.00;;;6.13;62.14
49973;BME280;65693;49.798;10.968;2023-02-01T06:50:17;98309.00;;;6.13;62.32
49973;BME280;65693;49.798;10.968;2023-02-01T06:52:44;98304.66;;;6.12;62.32
49973;BME280;65693;49.798;10.968;2023-02-01T06:55:10;98324.78;;;6.13;62.14
49973;BME280;65693;49.798;10.968;2023-02-01T06:57:37;98320.31;;;6.15;62.10
49973;BME280;65693;49.798;10.968;2023-02-01T07:00:04;98316.97;;;6.11;62.32
49973;BME280;65693;49.798;10.968;2023-02-01T07:02:32;98313.41;;;6.12;62.18
49973;BME280;65693;49.798;10.968;2023-02-01T07:04:59;98318.59;;;6.14;62.15
49973;BME280;65693;49.798;10.968;2023-02-01T07:07:25;98317.91;;;6.10;62.24
49973;BME280;65693;49.798;10.968;2023-02-01T07:09:51;98316.06;;;6.12;62.09
49973;BME280;65693;49.798;10.968;2023-02-01T07:12:19;98322.28;;;6.10;62.24
49973;BME280;65693;49.798;10.968;2023-02-01T07:14:45;98313.34;;;6.14;62.08
49973;BME280;65693;49.798;10.968;2023-02-01T07:17:11;98322.16;;;6.13;62.13
49973;BME280;65693;49.798;10.968;2023-02-01T07:19:39;98322.28;;;6.10;62.11
49973;BME280;65693;49.798;10.968;2023-02-01T07:22:06;98323.06;;;6.12;62.28
49973;BME280;65693;49.798;10.968;2023-02-01T07:24:33;98317.81;;;6.12;62.14
49973;BME280;65693;49.798;10.968;2023-02-01T07:27:00;98317.81;;;6.12;62.16
49973;BME280;65693;49.798;10.968;2023-02-01T07:29:26;98325.72;;;6.12;62.13
49973;BME280;65693;49.798;10.968;2023-02-01T07:31:52;98323.03;;;6.13;62.03
49973;BME280;65693;49.798;10.968;2023-02-01T07:34:19;98329.25;;;6.11;62.28
49973;BME280;65693;49.798;10.968;2023-02-01T07:36:47;98319.59;;;6.11;62.08
49973;BME280;65693;49.798;10.968;2023-02-01T07:39:13;98321.38;;;6.11;62.25
49973;BME280;65693;49.798;10.968;2023-02-01T07:41:39;98317.09;;;6.08;62.28
49973;BME280;65693;49.798;10.968;2023-02-01T07:44:06;98316.97;;;6.11;62.07
49973;BME280;65693;49.798;10.968;2023-02-01T07:46:32;98311.63;;;6.13;61.98
49973;BME280;65693;49.798;10.968;2023-02-01T07:48:59;98314.22;;;6.15;62.02
49973;BME280;65693;49.798;10.968;2023-02-01T07:51:25;98302.16;;;6.09;62.16
49973;BME280;65693;49.798;10.968;2023-02-01T13:48:20;98258.28;;;6.09;61.17
49973;BME280;65693;49.798;10.968;2023-02-01T13:50:51;98254.81;;;6.09;61.13
49973;BME280;65693;49.798;10.968;2023-02-01T13:53:23;98266.31;;;6.06;61.31
49973;BME280;65693;49.798;10.968;2023-02-01T13:55:55;98258.34;;;6.08;61.29
49973;BME280;65693;49.798;10.968;2023-02-01T13:58:30;98249.53;;;6.09;61.33
49973;BME280;65693;49.798;10.968;2023-02-01T14:07:18;98235.47;;;6.10;61.63
49973;BME280;65693;49.798;10.968;2023-02-01T14:09:44;98229.31;;;6.09;61.59
49973;BME280;65693;49.798;10.968;2023-02-01T14:12:43;98246.91;;;6.09;61.51
49973;BME280;65693;49.798;10.968;2023-02-01T14:15:18;98244.34;;;6.07;61.67
49973;BME280;65693;49.798;10.968;2023-02-01T14:17:46;98255.66;;;6.09;61.61
49973;BME280;65693;49.798;10.968;2023-02-01T14:20:43;98256.56;;;6.08;61.54
49973;BME280;65693;49.798;10.968;2023-02-01T14:23:24;98254.81;;;6.09;61.75
49973;BME280;65693;49.798;10.968;2023-02-01T14:26:06;98246.91;;;6.09;61.51
49973;BME280;65693;49.798;10.968;2023-02-01T14:28:38;98255.72;;;6.08;61.69
49973;BME280;65693;49.798;10.968;2023-02-01T14:31:16;98244.22;;;6.10;61.75
49973;BME280;65693;49.798;10.968;2023-02-01T14:33:43;98243.34;;;6.10;61.74
49973;BME280;65693;49.798;10.968;2023-02-01T14:36:13;98246.00;;;6.10;61.85
49973;BME280;65693;49.798;10.968;2023-02-01T14:38:48;98251.31;;;6.08;61.60
49973;BME280;65693;49.798;10.968;2023-02-01T14:41:32;98259.16;;;6.10;61.73
49973;BME280;65693;49.798;10.968;2023-02-01T14:44:32;98253.00;;;6.09;61.63
49973;BME280;65693;49.798;10.968;2023-02-01T14:49:49;98253.88;;;6.10;61.72
49973;BME280;65693;49.798;10.968;2023-02-01T14:52:22;98246.00;;;6.10;61.78
49973;BME280;65693;49.798;10.968;2023-02-01T14:54:59;98248.63;;;6.10;61.73
49973;BME280;65693;49.798;10.968;2023-02-01T14:57:28;98251.25;;;6.10;61.49
49973;BME280;65693;49.798;10.968;2023-02-01T14:59:59;98253.88;;;6.10;61.72
49973;BME280;65693;49.798;10.968;2023-02-01T15:02:27;98247.75;;;6.09;61.70
49973;BME280;65693;49.798;10.968;2023-02-01T15:04:57;98235.47;;;6.10;61.66
49973;BME280;65693;49.798;10.968;2023-02-01T15:07:25;98229.28;;;6.11;61.77
49973;BME280;65693;49.798;10.968;2023-02-01T15:09:56;98224.00;;;6.11;61.81
49973;BME280;65693;49.798;10.968;2023-02-01T15:12:26;98229.28;;;6.11;61.65
49973;BME280;65693;49.798;10.968;2023-02-01T15:15:13;98216.97;;;6.11;61.76
49973;BME280;65693;49.798;10.968;2023-02-01T15:17:41;98218.75;;;6.11;61.72
49973;BME280;65693;49.798;10.968;2023-02-01T15:20:14;98226.59;;;6.12;61.76
49973;BME280;65693;49.798;10.968;2023-02-01T15:22:42;98219.66;;;6.10;61.67
49973;BME280;65693;49.798;10.968;2023-02-01T15:25:20;98223.22;;;6.09;61.77
49973;BME280;65693;49.798;10.968;2023-02-01T15:27:50;98222.31;;;6.10;61.76
49973;BME280;65693;49.798;10.968;2023-02-01T15:30:18;98228.44;;;6.10;61.93
49973;BME280;65693;49.798;10.968;2023-02-01T15:32:46;98222.38;;;6.08;61.97
49973;BME280;65693;49.798;10.968;2023-02-01T15:35:33;98227.56;;;6.10;61.86
49973;BME280;65693;49.798;10.968;2023-02-01T15:41:05;98225.88;;;6.09;61.94
49973;BME280;65693;49.798;10.968;2023-02-01T15:43:35;98229.31;;;6.09;61.61
49973;BME280;65693;49.798;10.968;2023-02-01T15:46:06;98223.16;;;6.10;61.69
49973;BME280;65693;49.798;10.968;2023-02-01T15:48:37;98217.97;;;6.09;61.85
49973;BME280;65693;49.798;10.968;2023-02-01T15:51:04;98220.59;;;6.09;61.85
49973;BME280;65693;49.798;10.968;2023-02-01T15:53:31;98224.16;;;6.08;61.91
49973;BME280;65693;49.798;10.968;2023-02-01T15:56:00;98220.66;;;6.07;61.92
49973;BME280;65693;49.798;10.968;2023-02-01T15:58:30;98213.63;;;6.08;62.00
49973;BME280;65693;49.798;10.968;2023-02-01T16:01:00;98210.13;;;6.07;62.00
49973;BME280;65693;49.798;10.968;2023-02-01T16:03:34;98213.63;;;6.08;61.68
49973;BME280;65693;49.798;10.968;2023-02-01T16:06:03;98210.22;;;6.06;61.65
49973;BME280;65693;49.798;10.968;2023-02-01T16:08:31;98218.13;;;6.06;61.82
49973;BME280;65693;49.798;10.968;2023-02-01T16:11:01;98212.84;;;6.06;61.80
49973;BME280;65693;49.798;10.968;2023-02-01T16:13:27;98214.63;;;6.05;61.90
49973;BME280;65693;49.798;10.968;2023-02-01T16:15:55;98214.56;;;6.07;61.86
49973;BME280;65693;49.798;10.968;2023-02-01T16:18:21;98204.81;;;6.09;62.03
49973;BME280;65693;49.798;10.968;2023-02-01T16:20:48;98210.06;;;6.09;61.79
49973;BME280;65693;49.798;10.968;2023-02-01T16:23:14;98195.13;;;6.09;61.99
49973;BME280;65693;49.798;10.968;2023-02-01T16:25:41;98202.25;;;6.07;61.96
49973;BME280;65693;49.798;10.968;2023-02-01T16:28:08;98204.03;;;6.07;61.97
49973;BME280;65693;49.798;10.968;2023-02-01T16:30:35;98211.97;;;6.05;62.04
49973;BME280;65693;49.798;10.968;2023-02-01T16:33:03;98214.63;;;6.05;61.99
49973;BME280;65693;49.798;10.968;2023-02-01T16:35:33;98216.25;;;6.08;61.72
49973;BME280;65693;49.798;10.968;2023-02-01T16:38:01;98205.75;;;6.08;61.86
49973;BME280;65693;49.798;10.968;2023-02-01T16:40:28;98214.56;;;6.07;61.98
49973;BME280;65693;49.798;10.968;2023-02-01T16:42:55;98213.78;;;6.05;61.94
49973;BME280;65693;49.798;10.968;2023-02-01T16:45:21;98224.16;;;6.08;61.97
49973;BME280;65693;49.798;10.968;2023-02-01T16:47:49;98221.59;;;6.06;61.99
49973;BME280;65693;49.798;10.968;2023-02-01T16:50:21;98218.03;;;6.07;62.03
49973;BME280;65693;49.798;10.968;2023-02-01T16:52:48;98221.59;;;6.06;62.05
49973;BME280;65693;49.798;10.968;2023-02-01T16:55:16;98205.78;;;6.06;62.08
49973;BME280;65693;49.798;10.968;2023-02-01T16:57:43;98219.88;;;6.05;62.07
49973;BME280;65693;49.798;10.968;2023-02-01T17:00:11;98216.41;;;6.05;61.95
49973;BME280;65693;49.798;10.968;2023-02-01T17:02:38;98218.13;;;6.06;62.01
49973;BME280;65693;49.798;10.968;2023-02-01T17:05:06;98212.06;;;6.04;62.19
49973;BME280;65693;49.798;10.968;2023-02-01T17:07:35;98218.13;;;6.06;62.05
49973;BME280;65693;49.798;10.968;2023-02-01T17:10:04;98211.16;;;6.05;62.09
49973;BME280;65693;49.798;10.968;2023-02-01T17:12:32;98214.63;;;6.05;62.04
49973;BME280;65693;49.798;10.968;2023-02-01T17:14:59;98240.09;;;6.05;62.34
49973;BME280;65693;49.798;10.968;2023-02-01T17:17:30;98229.56;;;6.05;61.84
49973;BME280;65693;49.798;10.968;2023-02-01T17:19:58;98253.09;;;6.08;62.05
49973;BME280;65693;49.798;10.968;2023-02-01T17:22:25;98245.41;;;6.03;62.25
49973;BME280;65693;49.798;10.968;2023-02-01T17:24:52;98241.94;;;6.03;62.11
49973;BME280;65693;49.798;10.968;2023-02-01T17:27:19;98249.75;;;6.04;62.17
49973;BME280;65693;49.798;10.968;2023-02-01T17:29:45;98256.81;;;6.04;62.17
49973;BME280;65693;49.798;10.968;2023-02-01T17:32:16;98255.88;;;6.05;62.17
49973;BME280;65693;49.798;10.968;2023-02-01T17:34:43;98254.16;;;6.04;62.11
49973;BME280;65693;49.798;10.968;2023-02-01T17:39:58;98263.69;;;6.06;62.15
49973;BME280;65693;49.798;10.968;2023-02-01T17:42:27;98269.88;;;6.05;62.11
49973;BME280;65693;49.798;10.968;2023-02-01T17:44:55;98278.63;;;6.06;62.06
49973;BME280;65693;49.798;10.968;2023-02-01T17:47:22;98273.38;;;6.06;62.06
49973;BME280;65693;49.798;10.968;2023-02-01T17:49:49;98281.31;;;6.04;62.07
49973;BME280;65693;49.798;10.968;2023-02-01T17:52:21;98266.41;;;6.05;61.98
49973;BME280;65693;49.798;10.968;2023-02-01T17:54:49;98273.38;;;6.06;62.03
49973;BME280;65693;49.798;10.968;2023-02-01T17:57:19;98285.59;;;6.07;62.23
49973;BME280;65693;49.798;10.968;2023-02-01T17:59:46;98279.47;;;6.06;62.15
49973;BME280;65693;49.798;10.968;2023-02-01T18:02:18;98264.56;;;6.07;62.02
49973;BME280;65693;49.798;10.968;2023-02-01T18:04:45;98264.56;;;6.07;62.19
49973;BME280;65693;49.798;10.968;2023-02-01T18:07:11;98261.06;;;6.06;62.02
49973;BME280;65693;49.798;10.968;2023-02-01T18:09:38;98265.47;;;6.06;62.25
49973;BME280;65693;49.798;10.968;2023-02-01T18:12:06;98262.84;;;6.06;62.06
49973;BME280;65693;49.798;10.968;2023-02-01T18:14:40;98270.75;;;6.06;62.16
49973;BME280;65693;49.798;10.968;2023-02-01T18:17:08;98263.69;;;6.06;62.05
49973;BME280;65693;49.798;10.968;2023-02-01T18:19:36;98253.25;;;6.05;62.20
49973;BME280;65693;49.798;10.968;2023-02-01T18:22:03;98261.13;;;6.05;62.16
49973;BME280;65693;49.798;10.968;2023-02-01T18:24:30;98258.50;;;6.05;62.13
49973;BME280;65693;49.798;10.968;2023-02-01T18:26:57;98259.34;;;6.05;62.18
49973;BME280;65693;49.798;10.968;2023-02-01T18:29:24;98258.50;;;6.05;62.24
49973;BME280;65693;49.798;10.968;2023-02-01T18:31:52;98258.50;;;6.05;62.14
49973;BME280;65693;49.798;10.968;2023-02-01T18:34:19;98253.25;;;6.05;62.13
49973;BME280;65693;49.798;10.968;2023-02-01T18:36:46;98252.31;;;6.06;62.22
49973;BME280;65693;49.798;10.968;2023-02-01T18:39:13;98254.06;;;6.05;62.23
49973;BME280;65693;49.798;10.968;2023-02-01T18:41:39;98239.16;;;6.06;61.95
49973;BME280;65693;49.798;10.968;2023-02-01T18:44:12;98238.44;;;6.42;61.95
49973;BME280;65693;49.798;10.968;2023-02-01T18:46:39;98241.19;;;6.77;61.09
49973;BME280;65693;49.798;10.968;2023-02-01T18:49:07;98246.88;;;7.05;60.54
49973;BME280;65693;49.798;10.968;2023-02-01T18:51:34;98240.47;;;7.28;59.83
49973;BME280;65693;49.798;10.968;2023-02-01T18:54:00;98241.34;;;7.46;59.32
49973;BME280;65693;49.798;10.968;2023-02-01T18:56:26;98232.94;;;7.55;59.05
49973;BME280;65693;49.798;10.968;2023-02-01T18:58:53;98234.09;;;7.67;58.87
49973;BME280;65693;49.798;10.968;2023-02-01T19:01:20;98232.09;;;7.73;59.00
49973;BME280;65693;49.798;10.968;2023-02-01T19:03:47;98230.94;;;7.78;58.82
49973;BME280;65693;49.798;10.968;2023-02-01T19:06:15;98241.09;;;7.86;58.87
49973;BME280;65693;49.798;10.968;2023-02-01T19:08:44;98242.69;;;7.89;58.85
49973;BME280;65693;49.798;10.968;2023-02-01T19:11:10;98242.50;;;7.92;58.61
49973;BME280;65693;49.798;10.968;2023-02-01T19:13:37;98249.44;;;7.94;58.67
49973;BME280;65693;49.798;10.968;2023-02-01T19:16:07;98254.53;;;7.97;58.65
49973;BME280;65693;49.798;10.968;2023-02-01T19:18:34;98238.81;;;7.96;58.82
49973;BME280;65693;49.798;10.968;2023-02-01T19:21:03;98234.19;;;8.00;58.63
49973;BME280;65693;49.798;10.968;2023-02-01T19:23:31;98235.91;;;8.01;58.64
49973;BME280;65693;49.798;10.968;2023-02-01T19:25:57;98241.19;;;8.01;58.86